sensor_id;sensor_type;location;lat;lon;timestamp;pressure;altitude;pressure_sealevel;temperature;humidity
30714;BME280;17465;47.934;33.430;2023-05-02T00:01:14;57310.31;;;-140.43;62.16
30714;BME280;17465;47.934;33.430;2023-05-02T00:03:46;57311.37;;;-140.43;62.34
30714;BME280;17465;47.934;33.430;2023-05-02T00:06:16;57329.37;;;-140.43;62.09
30714;BME280;17465;47.934;33.430;2023-05-02T00:08:48;57319.84;;;-140.43;62.52
30714;BME280;17465;47.934;33.430;2023-05-02T00:11:19;57321.96;;;-140.43;61.53
30714;BME280;17465;47.934;33.430;2023-05-02T00:13:49;57312.43;;;-140.43;62.09
30714;BME280;17465;47.934;33.430;2023-05-02T00:16:19;57339.96;;;-140.43;62.41
30714;BME280;17465;47.934;33.430;2023-05-02T00:18:50;57303.95;;;-140.43;64.17
30714;BME280;17465;47.934;33.430;2023-05-02T00:21:22;57326.20;;;-140.43;63.44
30714;BME280;17465;47.934;33.430;2023-05-02T00:23:52;57327.25;;;-140.43;63.87
30714;BME280;17465;47.934;33.430;2023-05-02T00:26:23;57315.61;;;-140.43;62.08
30714;BME280;17465;47.934;33.430;2023-05-02T00:28:54;57341.02;;;-140.43;62.90
30714;BME280;17465;47.934;33.430;2023-05-02T00:31:24;57298.66;;;-140.43;65.37
30714;BME280;17465;47.934;33.430;2023-05-02T00:33:55;57298.66;;;-140.43;65.37
30714;BME280;17465;47.934;33.430;2023-05-02T00:36:26;57316.66;;;-140.43;65.02
30714;BME280;17465;47.934;33.430;2023-05-02T00:38:56;57288.07;;;-140.43;63.91
30714;BME280;17465;47.934;33.430;2023-05-02T00:41:27;57336.79;;;-140.43;64.27
30714;BME280;17465;47.934;33.430;2023-05-02T00:43:57;57321.96;;;-140.43;63.21
30714;BME280;17465;47.934;33.430;2023-05-02T00:46:28;57306.07;;;-140.43;64.56
30714;BME280;17465;47.934;33.430;2023-05-02T00:49:00;57330.43;;;-140.43;67.21
30714;BME280;17465;47.934;33.430;2023-05-02T00:51:32;57318.78;;;-140.43;67.02
30714;BME280;17465;47.934;33.430;2023-05-02T00:54:04;57317.72;;;-140.43;66.66
30714;BME280;17465;47.934;33.430;2023-05-02T00:56:35;57317.72;;;-140.43;66.66
30714;BME280;17465;47.934;33.430;2023-05-02T01:03:04;57307.13;;;-140.43;67.16
30714;BME280;17465;47.934;33.430;2023-05-02T01:10:48;57314.55;;;-140.43;67.74
30714;BME280;17465;47.934;33.430;2023-05-02T01:13:28;57335.73;;;-140.43;70.06
30714;BME280;17465;47.934;33.430;2023-05-02T01:16:01;57336.79;;;-140.43;69.62
30714;BME280;17465;47.934;33.430;2023-05-02T01:18:34;57336.79;;;-140.43;69.62
30714;BME280;17465;47.934;33.430;2023-05-02T01:21:08;57348.43;;;-140.43;67.44
30714;BME280;17465;47.934;33.430;2023-05-02T01:29:45;57312.43;;;-140.43;68.89
30714;BME280;17465;47.934;33.430;2023-05-02T01:32:19;57336.79;;;-140.43;67.87
30714;BME280;17465;47.934;33.430;2023-05-02T01:34:51;57331.49;;;-140.43;67.56
30714;BME280;17465;47.934;33.430;2023-05-02T01:37:25;57328.31;;;-140.43;68.98
30714;BME280;17465;47.934;33.430;2023-05-02T01:39:56;57328.31;;;-140.43;68.98
30714;BME280;17465;47.934;33.430;2023-05-02T01:42:29;57300.78;;;-140.43;69.20
30714;BME280;17465;47.934;33.430;2023-05-02T01:45:03;57334.67;;;-140.43;68.50
30714;BME280;17465;47.934;33.430;2023-05-02T01:47:36;57354.79;;;-140.43;68.73
30714;BME280;17465;47.934;33.430;2023-05-02T01:50:10;57354.79;;;-140.43;68.73
30714;BME280;17465;47.934;33.430;2023-05-02T01:52:43;57316.66;;;-140.43;70.20
30714;BME280;17465;47.934;33.430;2023-05-02T01:55:15;57320.90;;;-140.43;69.11
30714;BME280;17465;47.934;33.430;2023-05-02T01:57:48;57305.01;;;-140.43;69.74
30714;BME280;17465;47.934;33.430;2023-05-02T02:00:24;57314.55;;;-140.43;70.13
30714;BME280;17465;47.934;33.430;2023-05-02T02:02:55;57309.25;;;-140.43;71.46
30714;BME280;17465;47.934;33.430;2023-05-02T02:05:27;57325.14;;;-140.43;71.16
30714;BME280;17465;47.934;33.430;2023-05-02T02:07:58;57324.07;;;-140.43;71.13
30714;BME280;17465;47.934;33.430;2023-05-02T02:10:31;57311.37;;;-140.43;71.35
30714;BME280;17465;47.934;33.430;2023-05-02T02:13:11;57302.89;;;-140.43;71.45
30714;BME280;17465;47.934;33.430;2023-05-02T02:15:39;57302.89;;;-140.43;71.45
30714;BME280;17465;47.934;33.430;2023-05-02T02:18:13;57325.14;;;-140.43;70.48
30714;BME280;17465;47.934;33.430;2023-05-02T02:20:45;57298.66;;;-140.43;71.31
30714;BME280;17465;47.934;33.430;2023-05-02T02:23:18;57341.02;;;-140.43;71.49
30714;BME280;17465;47.934;33.430;2023-05-02T02:25:54;57318.78;;;-140.43;72.21
30714;BME280;17465;47.934;33.430;2023-05-02T02:28:28;57318.78;;;-140.43;72.21
30714;BME280;17465;47.934;33.430;2023-05-02T02:31:00;57299.72;;;-140.43;72.72
30714;BME280;17465;47.934;33.430;2023-05-02T02:33:31;57324.07;;;-140.43;72.16
30714;BME280;17465;47.934;33.430;2023-05-02T02:36:11;57310.31;;;-140.43;72.63
30714;BME280;17465;47.934;33.430;2023-05-02T02:41:42;57303.95;;;-140.43;72.43
30714;BME280;17465;47.934;33.430;2023-05-02T02:47:10;57328.31;;;-140.43;73.79
30714;BME280;17465;47.934;33.430;2023-05-02T02:55:16;57308.19;;;-140.43;74.56
30714;BME280;17465;47.934;33.430;2023-05-02T02:57:59;57319.84;;;-140.43;75.96
30714;BME280;17465;47.934;33.430;2023-05-02T03:00:31;57298.66;;;-140.43;74.37
30714;BME280;17465;47.934;33.430;2023-05-02T03:03:02;57314.55;;;-140.43;76.02
30714;BME280;17465;47.934;33.430;2023-05-02T03:05:34;57294.42;;;-140.43;75.39
30714;BME280;17465;47.934;33.430;2023-05-02T03:08:04;57302.89;;;-140.43;74.80
30714;BME280;17465;47.934;33.430;2023-05-02T03:10:35;57287.01;;;-140.43;73.72
30714;BME280;17465;47.934;33.430;2023-05-02T03:13:06;57308.19;;;-140.43;73.78
30714;BME280;17465;47.934;33.430;2023-05-02T03:18:12;57308.19;;;-140.43;74.89
30714;BME280;17465;47.934;33.430;2023-05-02T03:20:43;57313.48;;;-140.43;73.55
30714;BME280;17465;47.934;33.430;2023-05-02T03:23:13;57306.07;;;-140.43;72.67
30714;BME280;17465;47.934;33.430;2023-05-02T03:25:44;57306.07;;;-140.43;72.67
30714;BME280;17465;47.934;33.430;2023-05-02T03:28:14;57319.84;;;-140.43;73.79
30714;BME280;17465;47.934;33.430;2023-05-02T03:30:45;57319.84;;;-140.43;73.79
30714;BME280;17465;47.934;33.430;2023-05-02T03:33:15;57308.19;;;-140.43;72.74
30714;BME280;17465;47.934;33.430;2023-05-02T03:35:46;57314.55;;;-140.43;72.17
30714;BME280;17465;47.934;33.430;2023-05-02T03:38:16;57301.84;;;-140.43;71.92
30714;BME280;17465;47.934;33.430;2023-05-02T03:40:47;57323.02;;;-140.43;71.70
30714;BME280;17465;47.934;33.430;2023-05-02T03:43:17;57323.02;;;-140.43;71.70
30714;BME280;17465;47.934;33.430;2023-05-02T03:45:48;57343.14;;;-140.43;71.75
30714;BME280;17465;47.934;33.430;2023-05-02T03:48:20;57343.14;;;-140.43;71.75
30714;BME280;17465;47.934;33.430;2023-05-02T03:50:50;57308.19;;;-140.43;70.70
30714;BME280;17465;47.934;33.430;2023-05-02T03:53:21;57296.54;;;-140.43;71.37
30714;BME280;17465;47.934;33.430;2023-05-02T03:55:52;57313.48;;;-140.43;72.30
30714;BME280;17465;47.934;33.430;2023-05-02T03:58:27;57309.25;;;-140.43;72.31
30714;BME280;17465;47.934;33.430;2023-05-02T04:00:58;57316.66;;;-140.43;70.37
30714;BME280;17465;47.934;33.430;2023-05-02T04:03:29;57316.66;;;-140.43;70.37
30714;BME280;17465;47.934;33.430;2023-05-02T04:06:09;57319.84;;;-140.43;72.19
30714;BME280;17465;47.934;33.430;2023-05-02T04:08:58;57323.02;;;-140.43;69.90
30714;BME280;17465;47.934;33.430;2023-05-02T04:11:34;57332.55;;;-140.43;70.06
30714;BME280;17465;47.934;33.430;2023-05-02T04:14:07;57299.72;;;-140.43;68.31
30714;BME280;17465;47.934;33.430;2023-05-02T04:16:37;57299.72;;;-140.43;68.31
30714;BME280;17465;47.934;33.430;2023-05-02T04:19:08;57314.55;;;-140.43;67.92
30714;BME280;17465;47.934;33.430;2023-05-02T04:21:38;57295.48;;;-140.43;66.83
30714;BME280;17465;47.934;33.430;2023-05-02T04:27:08;57290.18;;;-140.43;67.19
30714;BME280;17465;47.934;33.430;2023-05-02T04:29:39;57293.36;;;-140.43;65.55
30714;BME280;17465;47.934;33.430;2023-05-02T04:32:09;57316.66;;;-140.43;65.76
30714;BME280;17465;47.934;33.430;2023-05-02T04:34:40;57317.72;;;-140.43;66.52
30714;BME280;17465;47.934;33.430;2023-05-02T04:37:11;57337.84;;;-140.43;63.02
30714;BME280;17465;47.934;33.430;2023-05-02T04:39:43;57337.84;;;-140.43;63.02
30714;BME280;17465;47.934;33.430;2023-05-02T04:42:15;57302.89;;;-140.43;59.38
30714;BME280;17465;47.934;33.430;2023-05-02T04:44:47;57313.48;;;-140.43;60.68
30714;BME280;17465;47.934;33.430;2023-05-02T04:47:17;57324.07;;;-140.43;57.83
30714;BME280;17465;47.934;33.430;2023-05-02T04:49:48;57315.61;;;-140.43;57.52
30714;BME280;17465;47.934;33.430;2023-05-02T04:52:18;57315.61;;;-140.43;57.52
30714;BME280;17465;47.934;33.430;2023-05-02T04:54:49;57321.96;;;-140.43;56.80
30714;BME280;17465;47.934;33.430;2023-05-02T04:57:19;57308.19;;;-140.43;53.72
30714;BME280;17465;47.934;33.430;2023-05-02T04:59:52;57318.78;;;-140.43;57.92
30714;BME280;17465;47.934;33.430;2023-05-02T05:02:25;57302.89;;;-140.43;53.57
30714;BME280;17465;47.934;33.430;2023-05-02T05:04:56;57326.20;;;-140.43;54.48
30714;BME280;17465;47.934;33.430;2023-05-02T05:07:28;57310.31;;;-140.43;50.53
30714;BME280;17465;47.934;33.430;2023-05-02T05:09:59;57311.37;;;-140.43;49.36
30714;BME280;17465;47.934;33.430;2023-05-02T05:12:30;57338.90;;;-140.43;50.65
30714;BME280;17465;47.934;33.430;2023-05-02T05:15:01;57294.42;;;-140.43;45.79
30714;BME280;17465;47.934;33.430;2023-05-02T05:17:32;57335.73;;;-140.43;45.89
30714;BME280;17465;47.934;33.430;2023-05-02T05:20:03;57315.61;;;-140.43;48.58
30714;BME280;17465;47.934;33.430;2023-05-02T05:22:41;57326.20;;;-140.43;45.80
30714;BME280;17465;47.934;33.430;2023-05-02T05:25:12;57334.67;;;-140.43;43.53
30714;BME280;17465;47.934;33.430;2023-05-02T05:27:42;57312.43;;;-140.43;45.04
30714;BME280;17465;47.934;33.430;2023-05-02T05:30:15;57312.43;;;-140.43;45.04
30714;BME280;17465;47.934;33.430;2023-05-02T05:32:47;57318.78;;;-140.43;40.40
30714;BME280;17465;47.934;33.430;2023-05-02T05:35:18;57318.78;;;-140.43;40.40
30714;BME280;17465;47.934;33.430;2023-05-02T05:37:48;57331.49;;;-140.43;40.91
30714;BME280;17465;47.934;33.430;2023-05-02T05:40:19;57318.78;;;-140.43;42.22
30714;BME280;17465;47.934;33.430;2023-05-02T05:42:50;57318.78;;;-140.43;42.22
30714;BME280;17465;47.934;33.430;2023-05-02T05:45:20;57312.43;;;-140.43;40.21
30714;BME280;17465;47.934;33.430;2023-05-02T05:47:54;57312.43;;;-140.43;40.21
30714;BME280;17465;47.934;33.430;2023-05-02T05:50:25;57339.96;;;-140.43;40.39
30714;BME280;17465;47.934;33.430;2023-05-02T05:53:00;57351.61;;;-140.43;39.95
30714;BME280;17465;47.934;33.430;2023-05-02T05:55:31;57329.37;;;-140.43;39.76
30714;BME280;17465;47.934;33.430;2023-05-02T05:58:03;57330.43;;;-140.43;40.38
30714;BME280;17465;47.934;33.430;2023-05-02T06:00:35;57317.72;;;-140.43;40.83
30714;BME280;17465;47.934;33.430;2023-05-02T06:03:13;57357.96;;;-140.43;38.60
30714;BME280;17465;47.934;33.430;2023-05-02T06:05:48;57339.96;;;-140.43;38.63
30714;BME280;17465;47.934;33.430;2023-05-02T06:08:23;57363.26;;;-140.43;39.53
30714;BME280;17465;47.934;33.430;2023-05-02T06:10:57;57354.79;;;-140.43;38.32
30714;BME280;17465;47.934;33.430;2023-05-02T06:13:30;57329.37;;;-140.43;37.40
30714;BME280;17465;47.934;33.430;2023-05-02T06:16:18;57329.37;;;-140.43;37.40
30714;BME280;17465;47.934;33.430;2023-05-02T06:19:01;57398.21;;;-140.43;35.67
30714;BME280;17465;47.934;33.430;2023-05-02T06:22:03;57398.21;;;-140.43;35.67
30714;BME280;17465;47.934;33.430;2023-05-02T06:24:49;57388.68;;;-140.43;34.84
30714;BME280;17465;47.934;33.430;2023-05-02T06:27:45;57388.68;;;-140.43;34.84
30714;BME280;17465;47.934;33.430;2023-05-02T06:30:19;57429.98;;;-140.43;32.83
30714;BME280;17465;47.934;33.430;2023-05-02T06:32:51;57429.98;;;-140.43;32.83
30714;BME280;17465;47.934;33.430;2023-05-02T06:35:25;57438.46;;;-140.43;32.95
30714;BME280;17465;47.934;33.430;2023-05-02T06:38:02;57411.98;;;-140.43;30.35
30714;BME280;17465;47.934;33.430;2023-05-02T06:43:21;56067.21;;;-140.43;30.59
30714;BME280;17465;47.934;33.430;2023-05-02T06:45:53;57443.75;;;-140.43;29.12
30714;BME280;17465;47.934;33.430;2023-05-02T06:51:02;57494.59;;;-140.43;29.03
30714;BME280;17465;47.934;33.430;2023-05-02T06:53:36;57527.42;;;-140.43;27.38
30714;BME280;17465;47.934;33.430;2023-05-02T06:56:12;57478.70;;;-140.43;27.82
30714;BME280;17465;47.934;33.430;2023-05-02T06:59:11;57478.70;;;-140.43;27.82
30714;BME280;17465;47.934;33.430;2023-05-02T07:01:40;57500.94;;;-140.43;27.52
30714;BME280;17465;47.934;33.430;2023-05-02T07:04:13;57494.59;;;-140.43;25.99
30714;BME280;17465;47.934;33.430;2023-05-02T07:06:45;57517.89;;;-140.43;27.82
30714;BME280;17465;47.934;33.430;2023-05-02T07:09:17;57546.48;;;-140.43;26.16
30714;BME280;17465;47.934;33.430;2023-05-02T07:11:48;57546.48;;;-140.43;26.16
30714;BME280;17465;47.934;33.430;2023-05-02T07:35:08;56004.75;;;-140.43;24.80
30714;BME280;17465;47.934;33.430;2023-05-02T07:37:38;57587.79;;;-140.43;24.71
30714;BME280;17465;47.934;33.430;2023-05-02T07:40:09;57639.69;;;-140.43;24.73
30714;BME280;17465;47.934;33.430;2023-05-02T07:42:45;57682.05;;;-140.43;24.07
30714;BME280;17465;47.934;33.430;2023-05-02T07:45:19;57608.98;;;-140.43;25.12
30714;BME280;17465;47.934;33.430;2023-05-02T07:47:58;57653.46;;;-140.43;23.19
30714;BME280;17465;47.934;33.430;2023-05-02T07:50:32;57628.04;;;-140.43;25.86
30714;BME280;17465;47.934;33.430;2023-05-02T07:53:03;57584.61;;;-140.43;23.39
30714;BME280;17465;47.934;33.430;2023-05-02T07:55:35;57670.41;;;-140.43;24.70
30714;BME280;17465;47.934;33.430;2023-05-02T07:58:07;57613.21;;;-140.43;24.99
30714;BME280;17465;47.934;33.430;2023-05-02T08:00:38;57675.70;;;-140.43;24.25
30714;BME280;17465;47.934;33.430;2023-05-02T08:03:11;57675.70;;;-140.43;24.25
30714;BME280;17465;47.934;33.430;2023-05-02T08:19:58;55943.35;;;-140.43;22.42
30714;BME280;17465;47.934;33.430;2023-05-02T08:22:32;57637.57;;;-140.43;23.67
30714;BME280;17465;47.934;33.430;2023-05-02T08:25:04;57651.34;;;-140.43;25.21
30714;BME280;17465;47.934;33.430;2023-05-02T08:27:36;57739.25;;;-140.43;23.50
30714;BME280;17465;47.934;33.430;2023-05-02T08:30:08;57697.95;;;-140.43;26.18
30714;BME280;17465;47.934;33.430;2023-05-02T08:32:40;57661.93;;;-140.43;23.98
30714;BME280;17465;47.934;33.430;2023-05-02T08:35:28;57692.65;;;-140.43;22.59
30714;BME280;17465;47.934;33.430;2023-05-02T08:37:58;57756.20;;;-140.43;23.91
30714;BME280;17465;47.934;33.430;2023-05-02T08:40:32;57724.42;;;-140.43;24.01
30714;BME280;17465;47.934;33.430;2023-05-02T08:43:04;57724.42;;;-140.43;24.01
30714;BME280;17465;47.934;33.430;2023-05-02T08:45:38;57697.95;;;-140.43;24.59
30714;BME280;17465;47.934;33.430;2023-05-02T08:48:09;57697.95;;;-140.43;24.59
30714;BME280;17465;47.934;33.430;2023-05-02T08:50:42;57719.12;;;-140.43;23.76
30714;BME280;17465;47.934;33.430;2023-05-02T08:53:13;57718.07;;;-140.43;22.80
30714;BME280;17465;47.934;33.430;2023-05-02T08:56:14;57783.74;;;-140.43;21.43
30714;BME280;17465;47.934;33.430;2023-05-02T08:59:06;57727.60;;;-140.43;24.66
30714;BME280;17465;47.934;33.430;2023-05-02T09:02:11;57705.36;;;-140.43;24.61
30714;BME280;17465;47.934;33.430;2023-05-02T09:04:56;57707.48;;;-140.43;24.92
30714;BME280;17465;47.934;33.430;2023-05-02T09:07:28;57750.90;;;-140.43;24.37
30714;BME280;17465;47.934;33.430;2023-05-02T09:09:59;57750.90;;;-140.43;24.37
30714;BME280;17465;47.934;33.430;2023-05-02T09:12:31;57738.19;;;-140.43;22.93
30714;BME280;17465;47.934;33.430;2023-05-02T09:15:18;57738.19;;;-140.43;22.93
30714;BME280;17465;47.934;33.430;2023-05-02T09:18:00;55929.59;;;-140.43;21.83
30714;BME280;17465;47.934;33.430;2023-05-02T09:20:40;57743.49;;;-140.43;23.99
30714;BME280;17465;47.934;33.430;2023-05-02T09:23:08;57797.51;;;-140.43;26.57
30714;BME280;17465;47.934;33.430;2023-05-02T09:25:38;57789.04;;;-140.43;25.49
30714;BME280;17465;47.934;33.430;2023-05-02T09:28:09;57800.68;;;-140.43;23.08
30714;BME280;17465;47.934;33.430;2023-05-02T09:30:43;57736.07;;;-140.43;22.49
30714;BME280;17465;47.934;33.430;2023-05-02T09:33:25;57736.07;;;-140.43;22.49
30714;BME280;17465;47.934;33.430;2023-05-02T09:35:53;57722.30;;;-140.43;22.52
30714;BME280;17465;47.934;33.430;2023-05-02T09:38:24;57740.31;;;-140.43;22.41
30714;BME280;17465;47.934;33.430;2023-05-02T09:40:54;57832.46;;;-140.43;22.40
30714;BME280;17465;47.934;33.430;2023-05-02T09:43:26;57832.46;;;-140.43;22.40
30714;BME280;17465;47.934;33.430;2023-05-02T09:45:58;57782.68;;;-140.43;23.95
30714;BME280;17465;47.934;33.430;2023-05-02T09:48:30;57782.68;;;-140.43;23.95
30714;BME280;17465;47.934;33.430;2023-05-02T09:51:00;57831.40;;;-140.43;21.09
30714;BME280;17465;47.934;33.430;2023-05-02T09:53:31;57798.57;;;-140.43;23.15
30714;BME280;17465;47.934;33.430;2023-05-02T09:56:06;57798.57;;;-140.43;23.15
30714;BME280;17465;47.934;33.430;2023-05-02T09:58:36;57795.39;;;-140.43;24.71
30714;BME280;17465;47.934;33.430;2023-05-02T10:01:07;57801.74;;;-140.43;24.48
30714;BME280;17465;47.934;33.430;2023-05-02T10:03:40;57850.47;;;-140.43;21.16
30714;BME280;17465;47.934;33.430;2023-05-02T10:06:11;57803.86;;;-140.43;22.40
30714;BME280;17465;47.934;33.430;2023-05-02T10:08:51;57872.71;;;-140.43;22.08
30714;BME280;17465;47.934;33.430;2023-05-02T10:11:24;57767.85;;;-140.43;21.37
30714;BME280;17465;47.934;33.430;2023-05-02T10:14:11;57874.83;;;-140.43;22.45
30714;BME280;17465;47.934;33.430;2023-05-02T10:16:43;57809.16;;;-140.43;21.85
30714;BME280;17465;47.934;33.430;2023-05-02T10:19:12;57802.80;;;-140.43;21.99
30714;BME280;17465;47.934;33.430;2023-05-02T10:21:49;57833.52;;;-140.43;23.51
30714;BME280;17465;47.934;33.430;2023-05-02T10:24:20;57833.52;;;-140.43;23.51
30714;BME280;17465;47.934;33.430;2023-05-02T10:26:54;57837.76;;;-140.43;23.79
30714;BME280;17465;47.934;33.430;2023-05-02T10:29:31;57837.76;;;-140.43;23.79
30714;BME280;17465;47.934;33.430;2023-05-02T10:32:05;57834.58;;;-140.43;20.40
30714;BME280;17465;47.934;33.430;2023-05-02T10:34:41;57834.58;;;-140.43;20.40
30714;BME280;17465;47.934;33.430;2023-05-02T10:37:25;57890.72;;;-140.43;21.20
30714;BME280;17465;47.934;33.430;2023-05-02T10:40:16;57945.80;;;-140.43;21.76
30714;BME280;17465;47.934;33.430;2023-05-02T10:42:49;57774.20;;;-140.43;20.60
30714;BME280;17465;47.934;33.430;2023-05-02T10:45:33;57774.20;;;-140.43;20.60
30714;BME280;17465;47.934;33.430;2023-05-02T10:48:27;57917.20;;;-140.43;20.90
30714;BME280;17465;47.934;33.430;2023-05-02T10:51:07;57917.20;;;-140.43;20.90
30714;BME280;17465;47.934;33.430;2023-05-02T10:53:44;57873.77;;;-140.43;22.43
30714;BME280;17465;47.934;33.430;2023-05-02T10:56:33;57914.02;;;-140.43;22.70
30714;BME280;17465;47.934;33.430;2023-05-02T11:05:05;57785.86;;;-140.43;21.60
30714;BME280;17465;47.934;33.430;2023-05-02T11:07:38;57919.32;;;-140.43;22.21
30714;BME280;17465;47.934;33.430;2023-05-02T11:23:34;55871.36;;;-140.43;22.38
30714;BME280;17465;47.934;33.430;2023-05-02T11:26:19;57966.98;;;-140.43;22.49
30714;BME280;17465;47.934;33.430;2023-05-02T11:28:50;57992.41;;;-140.43;21.78
30714;BME280;17465;47.934;33.430;2023-05-02T11:34:21;57854.70;;;-140.43;21.94
30714;BME280;17465;47.934;33.430;2023-05-02T11:36:58;57854.70;;;-140.43;21.94
30714;BME280;17465;47.934;33.430;2023-05-02T11:39:29;57827.16;;;-140.43;23.28
30714;BME280;17465;47.934;33.430;2023-05-02T11:42:04;57888.60;;;-140.43;23.80
30714;BME280;17465;47.934;33.430;2023-05-02T11:48:15;57908.73;;;-140.43;21.23
30714;BME280;17465;47.934;33.430;2023-05-02T11:53:23;57954.27;;;-140.43;22.22
30714;BME280;17465;47.934;33.430;2023-05-02T11:56:04;57921.43;;;-140.43;20.52
30714;BME280;17465;47.934;33.430;2023-05-02T11:58:34;57941.56;;;-140.43;21.39
30714;BME280;17465;47.934;33.430;2023-05-02T12:01:13;57924.61;;;-140.43;22.27
30714;BME280;17465;47.934;33.430;2023-05-02T12:03:47;58010.41;;;-140.43;20.39
30714;BME280;17465;47.934;33.430;2023-05-02T12:06:18;58010.41;;;-140.43;20.39
30714;BME280;17465;47.934;33.430;2023-05-02T12:08:50;57846.23;;;-140.43;20.49
30714;BME280;17465;47.934;33.430;2023-05-02T12:11:23;57964.86;;;-140.43;20.22
30714;BME280;17465;47.934;33.430;2023-05-02T12:13:54;57939.44;;;-140.43;21.22
30714;BME280;17465;47.934;33.430;2023-05-02T12:16:24;57997.70;;;-140.43;22.61
30714;BME280;17465;47.934;33.430;2023-05-02T12:18:56;57874.83;;;-140.43;21.32
30714;BME280;17465;47.934;33.430;2023-05-02T12:21:30;57858.94;;;-140.43;21.47
30714;BME280;17465;47.934;33.430;2023-05-02T12:24:04;57847.29;;;-140.43;23.28
30714;BME280;17465;47.934;33.430;2023-05-02T12:26:36;57858.94;;;-140.43;21.87
30714;BME280;17465;47.934;33.430;2023-05-02T12:29:06;57947.92;;;-140.43;21.50
30714;BME280;17465;47.934;33.430;2023-05-02T12:32:00;57836.70;;;-140.43;20.82
30714;BME280;17465;47.934;33.430;2023-05-02T12:34:37;57979.70;;;-140.43;22.75
30714;BME280;17465;47.934;33.430;2023-05-02T12:37:07;57898.13;;;-140.43;22.59
30714;BME280;17465;47.934;33.430;2023-05-02T12:39:40;57898.13;;;-140.43;22.59
30714;BME280;17465;47.934;33.430;2023-05-02T12:45:18;55853.37;;;-140.43;21.80
30714;BME280;17465;47.934;33.430;2023-05-02T12:47:52;58013.59;;;-140.43;21.19
30714;BME280;17465;47.934;33.430;2023-05-02T12:50:35;57964.86;;;-140.43;22.12
30714;BME280;17465;47.934;33.430;2023-05-02T12:53:06;57944.74;;;-140.43;22.81
30714;BME280;17465;47.934;33.430;2023-05-02T12:55:39;57958.51;;;-140.43;23.43
30714;BME280;17465;47.934;33.430;2023-05-02T12:58:11;58116.34;;;-140.43;21.69
30714;BME280;17465;47.934;33.430;2023-05-02T13:00:42;58116.34;;;-140.43;21.69
30714;BME280;17465;47.934;33.430;2023-05-02T13:03:14;57912.96;;;-140.43;21.98
30714;BME280;17465;47.934;33.430;2023-05-02T13:05:45;57912.96;;;-140.43;21.98
30714;BME280;17465;47.934;33.430;2023-05-02T13:08:20;57969.10;;;-140.43;23.11
30714;BME280;17465;47.934;33.430;2023-05-02T13:10:56;57969.10;;;-140.43;23.11
30714;BME280;17465;47.934;33.430;2023-05-02T13:13:29;58043.25;;;-140.43;20.67
30714;BME280;17465;47.934;33.430;2023-05-02T13:15:59;57957.45;;;-140.43;23.00
30714;BME280;17465;47.934;33.430;2023-05-02T13:18:30;57957.45;;;-140.43;23.00
30714;BME280;17465;47.934;33.430;2023-05-02T13:21:08;58094.10;;;-140.43;21.84
30714;BME280;17465;47.934;33.430;2023-05-02T13:23:38;58108.93;;;-140.43;20.17
30714;BME280;17465;47.934;33.430;2023-05-02T13:26:17;58046.43;;;-140.43;21.46
30714;BME280;17465;47.934;33.430;2023-05-02T13:29:01;58046.43;;;-140.43;21.46
30714;BME280;17465;47.934;33.430;2023-05-02T13:38:30;57992.41;;;-140.43;21.07
30714;BME280;17465;47.934;33.430;2023-05-02T13:47:13;57855.77;;;-140.43;22.19
30714;BME280;17465;47.934;33.430;2023-05-02T13:49:48;57793.27;;;-140.43;23.42
30714;BME280;17465;47.934;33.430;2023-05-02T13:52:24;57889.66;;;-140.43;22.47
30714;BME280;17465;47.934;33.430;2023-05-02T13:54:57;57856.82;;;-140.43;23.69
30714;BME280;17465;47.934;33.430;2023-05-02T13:57:31;57827.16;;;-140.43;23.37
30714;BME280;17465;47.934;33.430;2023-05-02T14:00:02;57827.16;;;-140.43;23.37
30714;BME280;17465;47.934;33.430;2023-05-02T14:02:38;57839.87;;;-140.43;22.82
30714;BME280;17465;47.934;33.430;2023-05-02T14:05:10;57864.24;;;-140.43;23.68
30714;BME280;17465;47.934;33.430;2023-05-02T14:07:52;57849.41;;;-140.43;23.69
30714;BME280;17465;47.934;33.430;2023-05-02T14:10:25;57849.41;;;-140.43;23.69
30714;BME280;17465;47.934;33.430;2023-05-02T14:12:59;57881.19;;;-140.43;22.59
30714;BME280;17465;47.934;33.430;2023-05-02T14:15:29;57718.07;;;-140.43;26.25
30714;BME280;17465;47.934;33.430;2023-05-02T14:18:00;57691.59;;;-140.43;25.65
30714;BME280;17465;47.934;33.430;2023-05-02T14:20:37;57650.28;;;-140.43;25.05
30714;BME280;17465;47.934;33.430;2023-05-02T14:23:04;57650.28;;;-140.43;25.05
30714;BME280;17465;47.934;33.430;2023-05-02T14:25:36;57649.22;;;-140.43;26.02
30714;BME280;17465;47.934;33.430;2023-05-02T14:28:08;57598.38;;;-140.43;26.05
30714;BME280;17465;47.934;33.430;2023-05-02T14:30:47;57586.73;;;-140.43;26.03
30714;BME280;17465;47.934;33.430;2023-05-02T14:33:16;57586.73;;;-140.43;26.03
30714;BME280;17465;47.934;33.430;2023-05-02T14:35:48;57547.54;;;-140.43;26.36
30714;BME280;17465;47.934;33.430;2023-05-02T14:38:18;57582.50;;;-140.43;25.67
30714;BME280;17465;47.934;33.430;2023-05-02T14:40:49;57560.25;;;-140.43;25.98
30714;BME280;17465;47.934;33.430;2023-05-02T14:43:21;57560.25;;;-140.43;25.98
30714;BME280;17465;47.934;33.430;2023-05-02T14:45:51;57490.35;;;-140.43;25.69
30714;BME280;17465;47.934;33.430;2023-05-02T14:48:30;57490.35;;;-140.43;25.69
30714;BME280;17465;47.934;33.430;2023-05-02T14:50:57;57510.48;;;-140.43;26.87
30714;BME280;17465;47.934;33.430;2023-05-02T14:53:28;57478.70;;;-140.43;27.09
30714;BME280;17465;47.934;33.430;2023-05-02T14:55:59;57478.70;;;-140.43;27.09
30714;BME280;17465;47.934;33.430;2023-05-02T14:58:33;57463.87;;;-140.43;28.11
30714;BME280;17465;47.934;33.430;2023-05-02T15:01:14;57463.87;;;-140.43;31.51